Time;durP1;ratioP1;P1;durP2;ratioP2;P2;SDS_P1;SDS_P2;PMS_P1;PMS_P2;Temp;Humidity;BMP_temperature;BMP_pressure;BME280_temperature;BME280_humidity;BME280_pressure;Samples;Min_cycle;Max_cycle;Signal;HPM_P1;HPM_P2
2021/09/01 00:00:45;;;;;;;2.00;1.60;;;;;;;;;;140165;1179;100420;-73
2021/09/01 00:03:49;;;;;;;3.50;1.80;;;;;;;;;;140149;1179;100894;-73
2021/09/01 00:06:52;;;;;;;2.60;1.60;;;;;;;;;;140184;1179;100441;-74
2021/09/01 00:09:57;;;;;;;1.90;1.50;;;;;;;;;;140104;1180;100512;-73
2021/09/01 00:13:01;;;;;;;3.80;2.00;;;;;;;;;;140164;1179;100523;-73
2021/09/01 00:16:05;;;;;;;2.10;1.80;;;;;;;;;;140130;1179;100524;-72
2021/09/01 00:19:10;;;;;;;2.60;1.80;;;;;;;;;;140073;1179;100884;-72
2021/09/01 00:22:13;;;;;;;2.60;1.80;;;;;;;;;;140133;1181;100523;-72
2021/09/01 00:25:17;;;;;;;2.50;1.70;;;;;;;;;;140111;1179;100450;-74
2021/09/01 00:28:21;;;;;;;2.70;1.90;;;;;;;;;;140113;1179;100500;-72
2021/09/01 00:31:25;;;;;;;2.70;2.00;;;;;;;;;;140129;1179;100457;-73
2021/09/01 00:34:29;;;;;;;2.60;2.00;;;;;;;;;;140131;1180;101350;-72
2021/09/01 00:37:32;;;;;;;3.20;1.90;;;;;;;;;;140166;1179;100966;-72
2021/09/01 00:40:36;;;;;;;2.40;2.20;;;;;;;;;;140136;1179;100415;-73
2021/09/01 00:43:40;;;;;;;2.60;2.20;;;;;;;;;;140047;1179;100858;-73
2021/09/01 00:46:44;;;;;;;2.50;2.10;;;;;;;;;;140123;1179;100411;-73
2021/09/01 00:49:48;;;;;;;3.40;2.50;;;;;;;;;;140145;1179;100455;-74
2021/09/01 00:52:52;;;;;;;3.10;2.60;;;;;;;;;;140128;1179;100526;-74
2021/09/01 00:55:57;;;;;;;4.50;2.60;;;;;;;;;;140105;1179;100541;-73
2021/09/01 00:59:01;;;;;;;3.20;2.80;;;;;;;;;;140176;1178;100496;-73
2021/09/01 01:02:05;;;;;;;3.30;2.70;;;;;;;;;;140202;1179;100897;-73
2021/09/01 01:05:09;;;;;;;4.00;3.00;;;;;;;;;;140146;1179;100521;-73
2021/09/01 01:08:14;;;;;;;4.50;2.70;;;;;;;;;;140102;1178;100408;-72
2021/09/01 01:11:19;;;;;;;4.50;3.10;;;;;;;;;;140174;1179;100411;-74
2021/09/01 01:14:22;;;;;;;4.70;3.40;;;;;;;;;;140162;1179;100475;-73
2021/09/01 01:17:26;;;;;;;4.60;3.40;;;;;;;;;;140145;1179;100423;-73
2021/09/01 01:20:30;;;;;;;4.30;3.30;;;;;;;;;;140143;1179;100541;-73
2021/09/01 01:23:34;;;;;;;4.70;3.20;;;;;;;;;;140157;1181;100509;-74
2021/09/01 01:26:38;;;;;;;4.60;3.50;;;;;;;;;;140147;1179;100534;-74
2021/09/01 01:29:42;;;;;;;4.20;3.50;;;;;;;;;;140194;1179;100546;-71
2021/09/01 01:32:47;;;;;;;4.80;3.20;;;;;;;;;;140171;1179;100454;-73
2021/09/01 01:35:50;;;;;;;6.10;3.10;;;;;;;;;;140131;1179;100876;-72
2021/09/01 01:38:54;;;;;;;4.00;3.10;;;;;;;;;;140130;1179;100417;-72
2021/09/01 01:41:58;;;;;;;3.90;3.50;;;;;;;;;;140119;1179;100919;-73
2021/09/01 01:45:03;;;;;;;5.30;3.80;;;;;;;;;;140133;1179;100415;-72
2021/09/01 01:48:08;;;;;;;4.90;3.80;;;;;;;;;;140078;1179;100430;-73
2021/09/01 01:51:12;;;;;;;5.20;3.50;;;;;;;;;;140153;1179;100521;-73
2021/09/01 01:54:16;;;;;;;4.30;3.40;;;;;;;;;;140108;1184;100408;-73
2021/09/01 01:57:20;;;;;;;5.30;4.20;;;;;;;;;;140172;1179;100450;-72
2021/09/01 02:00:24;;;;;;;5.70;4.70;;;;;;;;;;140130;1179;100576;-74
2021/09/01 02:03:28;;;;;;;11.50;4.10;;;;;;;;;;140159;1179;100489;-75
2021/09/01 02:06:31;;;;;;;6.40;3.80;;;;;;;;;;140181;1179;100485;-76
2021/09/01 02:09:35;;;;;;;5.50;4.00;;;;;;;;;;140323;1179;100432;-75
2021/09/01 02:12:40;;;;;;;6.60;4.50;;;;;;;;;;140154;1179;100453;-74
2021/09/01 02:15:44;;;;;;;5.70;3.90;;;;;;;;;;140308;1179;100402;-77
2021/09/01 02:18:47;;;;;;;5.10;4.10;;;;;;;;;;140490;1179;100433;-76
2021/09/01 02:21:51;;;;;;;5.20;4.30;;;;;;;;;;140429;1179;101217;-77
2021/09/01 02:24:55;;;;;;;6.40;4.70;;;;;;;;;;140688;1179;100884;-77
2021/09/01 02:27:59;;;;;;;5.90;4.30;;;;;;;;;;140612;1181;100841;-77
2021/09/01 02:31:03;;;;;;;6.80;4.10;;;;;;;;;;140715;1179;100879;-78
2021/09/01 02:34:07;;;;;;;5.20;4.20;;;;;;;;;;140675;1178;100500;-76
2021/09/01 02:37:11;;;;;;;5.10;4.30;;;;;;;;;;140182;1179;100409;-76
2021/09/01 02:40:15;;;;;;;5.70;4.40;;;;;;;;;;140279;1179;100519;-78
2021/09/01 02:43:19;;;;;;;6.10;4.40;;;;;;;;;;140094;1179;100494;-77
2021/09/01 02:46:23;;;;;;;5.10;4.20;;;;;;;;;;140133;1179;100442;-75
2021/09/01 02:49:27;;;;;;;5.30;3.60;;;;;;;;;;140098;1180;100497;-76
2021/09/01 02:52:31;;;;;;;5.60;4.30;;;;;;;;;;140124;1180;100408;-76
2021/09/01 02:55:35;;;;;;;5.40;4.40;;;;;;;;;;140236;1179;100451;-76
2021/09/01 02:58:39;;;;;;;5.20;3.90;;;;;;;;;;140112;1184;100428;-76
2021/09/01 03:01:43;;;;;;;4.10;3.60;;;;;;;;;;140133;1179;100431;-76
2021/09/01 03:04:47;;;;;;;4.40;3.60;;;;;;;;;;140170;1179;100419;-81
2021/09/01 03:07:51;;;;;;;6.90;3.80;;;;;;;;;;140393;1177;100454;-77
2021/09/01 03:10:55;;;;;;;3.80;3.30;;;;;;;;;;140225;1177;101226;-75
2021/09/01 03:13:59;;;;;;;4.30;3.40;;;;;;;;;;140345;1177;100406;-76
2021/09/01 03:17:03;;;;;;;4.80;3.30;;;;;;;;;;140253;1177;100941;-76
2021/09/01 03:20:07;;;;;;;4.00;3.10;;;;;;;;;;140292;1177;100432;-76
2021/09/01 03:23:11;;;;;;;4.40;2.90;;;;;;;;;;140208;1177;100524;-76
2021/09/01 03:26:15;;;;;;;4.30;3.30;;;;;;;;;;140212;1177;100444;-75
2021/09/01 03:29:19;;;;;;;3.60;3.00;;;;;;;;;;140313;1177;100521;-76
2021/09/01 03:32:23;;;;;;;3.60;3.00;;;;;;;;;;140179;1178;100531;-76
2021/09/01 03:35:27;;;;;;;3.30;3.00;;;;;;;;;;140223;1177;100546;-75
2021/09/01 03:38:31;;;;;;;3.60;3.10;;;;;;;;;;140249;1177;100423;-75
2021/09/01 03:41:34;;;;;;;3.60;2.90;;;;;;;;;;140243;1178;100418;-75
2021/09/01 03:44:38;;;;;;;3.60;2.90;;;;;;;;;;140198;1178;100404;-76
2021/09/01 03:47:42;;;;;;;5.20;3.40;;;;;;;;;;140199;1179;100430;-75
2021/09/01 03:50:46;;;;;;;5.40;3.60;;;;;;;;;;140253;1177;101025;-75
2021/09/01 03:53:50;;;;;;;6.90;3.90;;;;;;;;;;140194;1177;100417;-75
2021/09/01 03:56:54;;;;;;;5.00;3.80;;;;;;;;;;140225;1177;100420;-74
2021/09/01 03:59:59;;;;;;;6.20;3.50;;;;;;;;;;140207;1177;100409;-74
2021/09/01 04:03:08;;;;;;;5.00;4.00;;;;;;;;;;140286;1177;100443;-78
2021/09/01 04:06:15;;;;;;;6.10;5.00;;;;;;;;;;140168;1177;100461;-74
2021/09/01 04:09:19;;;;;;;7.80;4.70;;;;;;;;;;140173;1178;100418;-76
2021/09/01 04:12:22;;;;;;;5.70;4.60;;;;;;;;;;140171;1177;100576;-75
2021/09/01 04:15:26;;;;;;;6.50;4.70;;;;;;;;;;140174;1178;100462;-75
2021/09/01 04:18:31;;;;;;;5.90;4.50;;;;;;;;;;140202;1177;100504;-75
2021/09/01 04:21:34;;;;;;;7.10;6.10;;;;;;;;;;140378;1176;100405;-75
2021/09/01 04:24:38;;;;;;;7.90;5.80;;;;;;;;;;140588;1177;100520;-75
2021/09/01 04:27:42;;;;;;;10.80;6.30;;;;;;;;;;140316;1179;100412;-75
2021/09/01 04:30:46;;;;;;;8.20;6.20;;;;;;;;;;140325;1177;101145;-75
2021/09/01 04:33:50;;;;;;;10.20;6.50;;;;;;;;;;140256;1177;100456;-75
2021/09/01 04:36:54;;;;;;;9.90;7.30;;;;;;;;;;140551;1177;100447;-76
2021/09/01 04:39:57;;;;;;;8.70;6.80;;;;;;;;;;140531;1177;100401;-75
2021/09/01 04:43:01;;;;;;;9.10;6.90;;;;;;;;;;140443;1177;100503;-77
2021/09/01 04:46:11;;;;;;;9.90;7.00;;;;;;;;;;140304;1180;100437;-75
2021/09/01 04:49:15;;;;;;;9.50;7.60;;;;;;;;;;140352;1176;100429;-74
2021/09/01 04:52:19;;;;;;;11.40;7.60;;;;;;;;;;140437;1176;100506;-76
2021/09/01 04:55:23;;;;;;;9.00;7.00;;;;;;;;;;140304;1176;100404;-76
2021/09/01 04:58:27;;;;;;;11.10;7.20;;;;;;;;;;140336;1183;100465;-75
2021/09/01 05:01:31;;;;;;;9.60;7.50;;;;;;;;;;140625;1176;100496;-74
2021/09/01 05:04:35;;;;;;;9.80;7.50;;;;;;;;;;140512;1176;100520;-75
2021/09/01 05:07:38;;;;;;;9.40;7.70;;;;;;;;;;140619;1176;100806;-75
2021/09/01 05:10:42;;;;;;;10.70;8.20;;;;;;;;;;140597;1176;100500;-73
2021/09/01 05:13:46;;;;;;;9.70;7.20;;;;;;;;;;140400;1176;100426;-75
2021/09/01 05:16:50;;;;;;;13.60;7.30;;;;;;;;;;140378;1176;100401;-76
2021/09/01 05:19:54;;;;;;;10.80;7.40;;;;;;;;;;140381;1176;100539;-74
2021/09/01 05:22:59;;;;;;;11.90;8.00;;;;;;;;;;140488;1176;101223;-75
2021/09/01 05:26:04;;;;;;;8.90;7.00;;;;;;;;;;140392;1176;100414;-74
2021/09/01 05:29:08;;;;;;;12.10;7.90;;;;;;;;;;140454;1180;100409;-75
2021/09/01 05:52:18;;;;;;;11.80;7.40;;;;;;;14.43;89.83;100187.65;137638;1199;648596;-74
2021/09/01 05:55:25;;;;;;;11.20;8.70;;;;;;;14.54;89.16;100194.67;139533;1183;108538;-75
2021/09/01 05:58:31;;;;;;;11.70;8.20;;;;;;;14.51;89.12;100195.74;139679;1183;108486;-75
2021/09/01 06:01:43;;;;;;;9.60;7.10;;;;;;;14.50;89.18;100195.68;139504;1184;108530;-75
2021/09/01 06:04:49;;;;;;;15.00;11.80;;;;;;;14.51;89.04;100193.94;139572;1183;109249;-75
2021/09/01 06:07:57;;;;;;;12.00;10.20;;;;;;;14.60;89.19;100194.32;139543;1183;108500;-75
2021/09/01 06:11:04;;;;;;;11.70;9.30;;;;;;;14.74;89.04;100201.06;139570;1184;108595;-74
2021/09/01 06:14:09;;;;;;;10.00;7.00;;;;;;;14.85;88.37;100202.70;139560;1183;108340;-75
2021/09/01 06:17:15;;;;;;;9.60;6.40;;;;;;;14.94;87.76;100208.30;139525;1183;108358;-75
2021/09/01 06:20:21;;;;;;;10.40;7.00;;;;;;;15.02;87.45;100209.34;139511;1183;108562;-73
2021/09/01 06:23:26;;;;;;;8.30;6.20;;;;;;;15.16;87.79;100209.59;139449;1184;108367;-74
2021/09/01 06:26:32;;;;;;;8.30;6.40;;;;;;;15.34;87.65;100212.64;139535;1184;108419;-75
2021/09/01 06:29:37;;;;;;;8.20;6.50;;;;;;;15.50;87.34;100210.48;139643;1183;108382;-74
2021/09/01 06:32:43;;;;;;;8.90;6.40;;;;;;;15.67;87.22;100217.14;139483;1184;108537;-75
2021/09/01 06:35:49;;;;;;;8.20;5.80;;;;;;;15.78;86.70;100221.33;139515;1183;108336;-74
2021/09/01 06:38:55;;;;;;;8.00;5.70;;;;;;;15.83;85.68;100226.60;139492;1184;108359;-75
2021/09/01 06:42:00;;;;;;;7.80;5.60;;;;;;;15.73;84.08;100233.65;139496;1184;108537;-75
2021/09/01 06:45:08;;;;;;;8.90;5.50;;;;;;;15.72;85.04;100230.60;139497;1183;108553;-74
2021/09/01 06:48:14;;;;;;;7.30;5.40;;;;;;;15.69;84.70;100234.32;139517;1183;108593;-75
2021/09/01 06:51:19;;;;;;;10.80;5.80;;;;;;;15.67;85.13;100235.48;139443;1184;108457;-74
2021/09/01 06:54:24;;;;;;;12.10;10.30;;;;;;;15.66;84.33;100243.42;139494;1184;108466;-75
2021/09/01 06:57:30;;;;;;;11.10;8.40;;;;;;;15.63;84.90;100253.73;139574;1183;108419;-75
2021/09/01 07:00:35;;;;;;;9.60;7.20;;;;;;;15.62;84.26;100252.55;139548;1184;108342;-74
2021/09/01 07:03:40;;;;;;;11.30;6.60;;;;;;;15.67;84.68;100255.70;139860;1180;108512;-75
2021/09/01 07:06:46;;;;;;;10.50;6.00;;;;;;;15.79;84.23;100252.96;139897;1180;108389;-75
2021/09/01 07:09:51;;;;;;;8.90;6.80;;;;;;;15.85;83.72;100257.31;139849;1184;108490;-74
2021/09/01 07:12:57;;;;;;;8.90;6.00;;;;;;;15.98;84.48;100262.45;139921;1180;108460;-75
2021/09/01 07:16:02;;;;;;;7.40;5.00;;;;;;;16.00;83.83;100267.92;139955;1180;108352;-75
2021/09/01 07:19:07;;;;;;;7.40;4.90;;;;;;;15.99;83.10;100271.59;140004;1181;108547;-75
2021/09/01 07:22:13;;;;;;;7.00;5.40;;;;;;;15.98;83.60;100274.79;139863;1180;108380;-75
2021/09/01 07:25:18;;;;;;;7.90;5.60;;;;;;;16.06;83.79;100272.86;140093;1180;107837;-74
2021/09/01 07:28:23;;;;;;;9.10;5.70;;;;;;;16.08;82.42;100281.11;139969;1180;108621;-75
2021/09/01 07:31:30;;;;;;;8.80;5.30;;;;;;;16.08;83.11;100281.08;139967;1180;108521;-75
2021/09/01 07:34:36;;;;;;;7.20;5.40;;;;;;;16.17;82.88;100281.10;139728;1181;108134;-74
2021/09/01 07:37:46;;;;;;;8.00;4.70;;;;;;;16.33;82.14;100286.66;139807;1180;108560;-74
2021/09/01 07:40:51;;;;;;;6.60;5.50;;;;;;;16.53;82.59;100283.84;139759;1180;108326;-75
2021/09/01 07:43:57;;;;;;;7.00;4.60;;;;;;;16.69;80.91;100286.70;139916;1180;108293;-76
2021/09/01 07:47:02;;;;;;;6.20;4.60;;;;;;;16.81;79.95;100288.39;139845;1184;108158;-73
2021/09/01 07:50:10;;;;;;;8.20;4.80;;;;;;;16.84;78.89;100295.42;139837;1180;109399;-75
2021/09/01 07:53:16;;;;;;;6.80;5.00;;;;;;;16.74;77.36;100297.62;140018;1180;108379;-75
2021/09/01 07:56:21;;;;;;;6.80;4.80;;;;;;;16.75;78.51;100297.30;139946;1180;108402;-74
2021/09/01 07:59:26;;;;;;;7.90;4.70;;;;;;;16.80;79.36;100294.83;139926;1180;107466;-75
2021/09/01 08:02:32;;;;;;;5.60;4.30;;;;;;;16.97;78.94;100293.46;139877;1180;108585;-74
2021/09/01 08:05:37;;;;;;;7.20;5.10;;;;;;;17.14;78.65;100292.02;139910;1180;108346;-75
2021/09/01 08:08:43;;;;;;;6.60;4.90;;;;;;;17.12;78.22;100300.23;139823;1180;108415;-76
2021/09/01 08:11:48;;;;;;;5.60;4.50;;;;;;;17.09;79.50;100304.02;140034;1180;108639;-76
2021/09/01 08:14:54;;;;;;;10.10;8.20;;;;;;;17.12;76.90;100306.29;139906;1181;108426;-75
2021/09/01 08:17:59;;;;;;;14.70;10.80;;;;;;;17.14;78.89;100307.84;139830;1180;108393;-75
2021/09/01 08:21:04;;;;;;;6.60;5.30;;;;;;;17.17;78.69;100310.48;139855;1180;108617;-75
2021/09/01 08:24:10;;;;;;;7.30;4.60;;;;;;;17.13;77.50;100318.91;139872;1180;108595;-75
2021/09/01 08:27:16;;;;;;;6.80;4.50;;;;;;;17.23;76.41;100326.09;139984;1180;108587;-74
2021/09/01 08:30:21;;;;;;;9.80;7.80;;;;;;;17.33;76.91;100321.02;139888;1180;107349;-75
2021/09/01 08:33:27;;;;;;;8.90;6.60;;;;;;;17.57;77.39;100322.52;139944;1180;108370;-76
2021/09/01 08:36:32;;;;;;;10.10;6.30;;;;;;;17.66;76.13;100327.60;140019;1180;108445;-75
2021/09/01 08:39:38;;;;;;;6.80;4.50;;;;;;;17.62;75.08;100335.92;139946;1180;108442;-75
2021/09/01 08:42:44;;;;;;;6.10;4.40;;;;;;;17.61;73.82;100337.95;140083;1180;108398;-76
2021/09/01 08:45:49;;;;;;;6.90;3.90;;;;;;;17.60;73.75;100332.01;139876;1180;108505;-74
2021/09/01 08:48:55;;;;;;;5.40;4.00;;;;;;;17.61;73.52;100331.13;139875;1180;108289;-75
2021/09/01 08:52:01;;;;;;;6.90;4.20;;;;;;;17.61;72.14;100332.91;139894;1180;108508;-75
2021/09/01 08:55:08;;;;;;;6.00;3.70;;;;;;;17.60;71.82;100339.67;139863;1180;106599;-76
2021/09/01 08:58:13;;;;;;;7.40;4.10;;;;;;;17.63;71.26;100344.19;139941;1180;107320;-75
2021/09/01 09:01:43;;;;;;;6.20;3.90;;;;;;;17.66;71.45;100346.87;139855;1180;108359;-75
2021/09/01 09:04:48;;;;;;;5.70;4.10;;;;;;;17.80;70.87;100347.41;140202;1178;108505;-76
2021/09/01 09:07:56;;;;;;;9.10;4.60;;;;;;;17.78;69.84;100356.86;140137;1180;108838;-75
2021/09/01 09:11:01;;;;;;;7.00;5.00;;;;;;;17.58;68.67;100361.24;140228;1177;108663;-75
2021/09/01 09:14:20;;;;;;;5.50;4.50;;;;;;;17.56;69.04;100354.64;140329;1177;108495;-74
2021/09/01 09:17:35;;;;;;;6.90;4.40;;;;;;;17.70;70.33;100357.18;140193;1180;106995;-75
2021/09/01 09:20:40;;;;;;;5.40;4.20;;;;;;;17.69;70.76;100358.17;140132;1180;109332;-75
2021/09/01 09:23:48;;;;;;;6.00;4.60;;;;;;;17.82;71.22;100360.30;140153;1178;108514;-75
2021/09/01 09:26:53;;;;;;;5.50;4.40;;;;;;;18.01;69.76;100360.73;140264;1178;108463;-75
2021/09/01 09:29:58;;;;;;;5.90;4.60;;;;;;;18.22;70.84;100356.73;140169;1177;108202;-76
2021/09/01 09:33:07;;;;;;;7.90;4.60;;;;;;;18.20;68.40;100364.24;140119;1180;108306;-76
2021/09/01 09:36:13;;;;;;;5.20;4.40;;;;;;;17.94;67.25;100368.53;140172;1180;107595;-74
2021/09/01 09:39:18;;;;;;;6.70;5.00;;;;;;;17.81;69.62;100370.03;140226;1180;108457;-75
2021/09/01 09:42:33;;;;;;;6.80;4.70;;;;;;;18.01;70.10;100365.63;140152;1180;107464;-76
2021/09/01 09:45:38;;;;;;;6.30;4.20;;;;;;;18.28;70.48;100363.94;140266;1180;108307;-75
2021/09/01 09:48:46;;;;;;;6.10;4.50;;;;;;;18.37;68.46;100371.55;140156;1178;108407;-76
2021/09/01 09:51:51;;;;;;;6.30;4.50;;;;;;;18.45;69.47;100373.08;140160;1178;108369;-75
2021/09/01 09:54:59;;;;;;;6.60;4.50;;;;;;;18.60;68.19;100374.86;140199;1177;108574;-75
2021/09/01 09:58:06;;;;;;;6.40;4.10;;;;;;;18.69;68.72;100371.36;140129;1178;108831;-76
2021/09/01 10:01:13;;;;;;;6.40;4.50;;;;;;;18.74;68.76;100369.33;140195;1180;108943;-76
2021/09/01 10:04:20;;;;;;;6.00;4.50;;;;;;;18.74;67.16;100376.25;140255;1178;108319;-75
2021/09/01 10:07:25;;;;;;;6.20;4.70;;;;;;;18.81;66.94;100376.58;140210;1177;108378;-75
2021/09/01 10:10:30;;;;;;;5.00;4.20;;;;;;;18.80;67.03;100378.94;140220;1178;108245;-75
2021/09/01 10:13:37;;;;;;;5.70;4.30;;;;;;;18.83;67.43;100382.83;140168;1180;108525;-74
2021/09/01 10:16:48;;;;;;;5.50;4.20;;;;;;;18.85;67.80;100382.06;140166;1178;107369;-76
2021/09/01 10:19:54;;;;;;;6.40;4.30;;;;;;;18.82;65.96;100383.48;140128;1180;109382;-76
2021/09/01 10:23:04;;;;;;;4.90;4.00;;;;;;;18.91;67.92;100383.27;140217;1178;108310;-74
2021/09/01 10:26:26;;;;;;;5.40;3.80;;;;;;;18.97;67.08;100390.30;140221;1178;108126;-76
2021/09/01 10:29:55;;;;;;;;;;;;;;;18.80;66.85;100388.75;140162;1180;109358;-77
2021/09/01 10:33:01;;;;;;;8.30;4.70;;;;;;;18.67;67.16;100399.17;140164;1180;107019;-76
2021/09/01 10:36:39;;;;;;;8.60;5.90;;;;;;;18.60;66.03;100402.70;140167;1180;108357;-76
2021/09/01 10:39:44;;;;;;;6.70;4.40;;;;;;;18.72;67.52;100393.83;140377;1180;108476;-76
2021/09/01 10:42:50;;;;;;;9.10;5.80;;;;;;;18.92;67.59;100392.95;140168;1178;108408;-75
2021/09/01 10:45:58;;;;;;;9.40;4.60;;;;;;;19.13;67.42;100395.95;140236;1180;108592;-75
2021/09/01 10:49:03;;;;;;;5.10;4.10;;;;;;;19.06;66.54;100393.69;140210;1180;108405;-76
2021/09/01 10:52:09;;;;;;;6.70;5.00;;;;;;;18.72;68.10;100396.11;140137;1180;107265;-75
2021/09/01 10:55:14;;;;;;;6.20;4.30;;;;;;;18.41;68.38;100408.80;140296;1180;108363;-76
2021/09/01 10:58:23;;;;;;;6.60;4.60;;;;;;;18.19;68.64;100409.05;140224;1180;107248;-76
2021/09/01 11:01:29;;;;;;;6.50;4.80;;;;;;;18.09;69.39;100405.64;140270;1178;108512;-76
2021/09/01 11:04:34;;;;;;;9.30;6.10;;;;;;;18.10;69.82;100408.40;140205;1180;107292;-75
2021/09/01 11:07:40;;;;;;;9.40;5.10;;;;;;;18.12;69.88;100410.02;140172;1180;108303;-74
2021/09/01 11:10:58;;;;;;;6.10;4.80;;;;;;;18.08;69.84;100417.52;140166;1180;107757;-76
2021/09/01 11:14:03;;;;;;;5.70;3.90;;;;;;;18.08;69.94;100419.88;140179;1180;107333;-76
2021/09/01 11:17:11;;;;;;;4.80;3.50;;;;;;;18.21;69.09;100425.36;140194;1178;108975;-76
2021/09/01 11:20:16;;;;;;;7.40;4.50;;;;;;;18.36;67.58;100436.34;140229;1178;108468;-74
2021/09/01 11:23:27;;;;;;;4.80;3.40;;;;;;;18.45;68.71;100428.64;140119;1180;108480;-76
2021/09/01 11:26:35;;;;;;;5.40;3.30;;;;;;;18.59;67.71;100428.13;140144;1180;108109;-75
2021/09/01 11:29:41;;;;;;;4.70;3.60;;;;;;;18.66;67.45;100426.50;140359;1180;108318;-76
2021/09/01 11:32:52;;;;;;;4.30;3.20;;;;;;;18.85;67.41;100417.34;140237;1178;108155;-76
2021/09/01 11:35:58;;;;;;;4.30;3.30;;;;;;;19.12;66.63;100424.74;140177;1178;108316;-76
2021/09/01 11:39:04;;;;;;;6.70;4.50;;;;;;;19.06;64.87;100430.60;140179;1178;108282;-76
2021/09/01 11:42:10;;;;;;;4.80;4.10;;;;;;;18.80;65.12;100431.59;140143;1179;108587;-75
2021/09/01 11:45:16;;;;;;;5.00;4.00;;;;;;;18.66;65.90;100434.60;140184;1180;108507;-75
2021/09/01 11:48:21;;;;;;;5.20;4.20;;;;;;;18.77;66.16;100439.23;140297;1177;106387;-75
2021/09/01 11:51:27;;;;;;;4.80;3.60;;;;;;;19.00;65.65;100434.78;140279;1180;108627;-76
2021/09/01 11:54:32;;;;;;;5.70;3.80;;;;;;;19.21;65.36;100433.08;140249;1178;108232;-77
2021/09/01 11:57:38;;;;;;;8.20;3.60;;;;;;;19.41;64.16;100423.23;140138;1180;107524;-77
2021/09/01 12:00:43;;;;;;;5.90;3.10;;;;;;;19.60;65.85;100424.08;140217;1180;108497;-75
2021/09/01 12:03:49;;;;;;;4.90;3.40;;;;;;;19.63;64.47;100428.16;140114;1180;108551;-76
2021/09/01 12:06:56;;;;;;;4.20;3.40;;;;;;;19.45;64.06;100438.27;140181;1180;108435;-76
2021/09/01 12:10:06;;;;;;;4.50;3.30;;;;;;;19.36;64.84;100441.17;140260;1177;109359;-76
2021/09/01 12:13:11;;;;;;;4.70;3.40;;;;;;;19.31;64.08;100448.20;140115;1180;108316;-76
2021/09/01 12:16:25;;;;;;;7.00;3.20;;;;;;;19.38;64.86;100442.52;140149;1180;108321;-76
2021/09/01 12:19:31;;;;;;;4.00;3.00;;;;;;;19.43;63.33;100445.68;140190;1180;108478;-75
2021/09/01 12:22:41;;;;;;;3.80;2.90;;;;;;;19.31;62.58;100447.16;140139;1177;108425;-76
2021/09/01 12:25:46;;;;;;;4.10;2.70;;;;;;;19.34;63.77;100445.75;140190;1180;108337;-76
2021/09/01 12:28:52;;;;;;;4.30;3.00;;;;;;;19.51;64.04;100443.04;140181;1180;108595;-76
2021/09/01 12:31:58;;;;;;;4.30;3.10;;;;;;;19.68;65.27;100437.33;140164;1178;108401;-76
2021/09/01 12:35:06;;;;;;;5.30;3.90;;;;;;;19.72;64.20;100444.75;140200;1180;108462;-76
2021/09/01 12:38:21;;;;;;;4.70;3.40;;;;;;;19.46;63.46;100451.05;140232;1180;108658;-74
2021/09/01 12:41:27;;;;;;;4.70;3.00;;;;;;;19.25;63.61;100445.08;140203;1180;108335;-76
2021/09/01 12:48:09;;;;;;;4.20;2.80;;;;;;;19.21;62.76;100448.14;137546;1205;636042;-76
2021/09/01 12:51:15;;;;;;;4.30;3.00;;;;;;;19.16;62.57;100453.67;139682;1183;108363;-76
2021/09/01 12:54:23;;;;;;;5.50;3.00;;;;;;;19.18;61.46;100449.35;139583;1184;108511;-76
2021/09/01 12:57:28;;;;;;;5.70;3.00;;;;;;;19.25;62.36;100444.83;139716;1182;108293;-76
2021/09/01 13:00:34;;;;;;;3.80;3.10;;;;;;;19.33;61.60;100451.70;139565;1184;108570;-76
2021/09/01 13:03:40;;;;;;;5.40;3.00;;;;;;;19.39;62.66;100450.14;139613;1183;108228;-76
2021/09/01 13:06:45;;;;;;;3.60;2.70;;;;;;;19.42;61.77;100451.42;139578;1184;108428;-75
2021/09/01 13:09:50;;;;;;;3.80;2.60;;;;;;;19.38;61.02;100453.38;140107;1179;108398;-76
2021/09/01 13:12:57;;;;;;;3.40;2.40;;;;;;;19.38;62.24;100448.21;140085;1179;108398;-76
2021/09/01 13:16:02;;;;;;;2.80;2.30;;;;;;;19.46;62.44;100449.48;140164;1179;108326;-75
2021/09/01 13:19:07;;;;;;;4.50;2.80;;;;;;;19.55;61.62;100448.14;140163;1181;108404;-75
2021/09/01 13:22:13;;;;;;;3.50;2.60;;;;;;;19.57;61.53;100447.73;140121;1180;108356;-75
2021/09/01 13:25:20;;;;;;;4.70;2.30;;;;;;;19.57;61.99;100441.70;140068;1180;108384;-75
2021/09/01 13:28:25;;;;;;;5.50;2.60;;;;;;;19.64;63.12;100441.77;140183;1179;109368;-76
2021/09/01 13:31:32;;;;;;;4.50;2.50;;;;;;;19.68;62.31;100442.64;140049;1180;108324;-76
2021/09/01 13:34:38;;;;;;;2.60;2.20;;;;;;;19.62;60.48;100441.90;140064;1181;108587;-75
2021/09/01 13:37:43;;;;;;;4.60;2.60;;;;;;;19.54;59.51;100448.19;140072;1179;108306;-76
2021/09/01 13:40:48;;;;;;;2.70;1.80;;;;;;;19.52;56.91;100453.84;140071;1179;108492;-76
2021/09/01 13:43:54;;;;;;;2.10;1.70;;;;;;;19.52;58.16;100448.64;140142;1179;108364;-75
2021/09/01 13:46:59;;;;;;;3.50;1.90;;;;;;;19.47;58.52;100458.63;140097;1179;108428;-75
2021/09/01 13:50:06;;;;;;;3.50;2.10;;;;;;;19.35;57.94;100468.90;140111;1179;108469;-75
2021/09/01 13:53:13;;;;;;;2.90;1.90;;;;;;;19.23;58.45;100464.99;140076;1179;108387;-76
2021/09/01 13:56:18;;;;;;;3.20;1.70;;;;;;;19.19;59.38;100463.25;140078;1179;108378;-76
2021/09/01 13:59:24;;;;;;;3.00;1.90;;;;;;;19.19;59.11;100458.42;140093;1179;108004;-76
2021/09/01 14:02:29;;;;;;;3.00;1.80;;;;;;;19.21;58.69;100465.63;140065;1180;108386;-76
2021/09/01 14:05:35;;;;;;;4.00;2.10;;;;;;;19.18;59.15;100463.78;140111;1179;108400;-76
2021/09/01 14:08:40;;;;;;;2.50;1.90;;;;;;;19.13;59.55;100461.06;140097;1179;108307;-76
2021/09/01 14:11:46;;;;;;;2.80;2.00;;;;;;;19.12;60.54;100456.53;140196;1180;108428;-77
2021/09/01 14:14:52;;;;;;;4.00;1.80;;;;;;;19.25;61.10;100454.93;140109;1180;108147;-75
2021/09/01 14:17:57;;;;;;;3.20;1.70;;;;;;;19.38;59.18;100458.96;140035;1179;108314;-76
2021/09/01 14:21:03;;;;;;;3.90;1.90;;;;;;;19.30;58.50;100464.40;140073;1179;108416;-76
2021/09/01 14:24:08;;;;;;;2.70;1.70;;;;;;;19.12;58.91;100472.35;140059;1180;108419;-75
2021/09/01 14:27:13;;;;;;;3.80;1.50;;;;;;;18.98;59.74;100472.47;140082;1179;108435;-75
2021/09/01 14:30:19;;;;;;;4.90;1.70;;;;;;;19.01;60.75;100470.65;140069;1179;107717;-76
2021/09/01 14:33:24;;;;;;;3.40;1.60;;;;;;;19.09;59.79;100471.46;140072;1179;108524;-75
2021/09/01 14:36:30;;;;;;;3.10;1.70;;;;;;;19.15;59.45;100476.48;140092;1180;108463;-75
2021/09/01 14:39:35;;;;;;;4.30;1.70;;;;;;;19.14;59.67;100467.77;140116;1179;108634;-76
2021/09/01 14:42:40;;;;;;;2.80;1.50;;;;;;;19.14;59.47;100473.14;140073;1179;108903;-76
2021/09/01 14:45:46;;;;;;;2.30;1.50;;;;;;;19.13;58.90;100467.36;140139;1179;108351;-74
2021/09/01 14:48:51;;;;;;;3.00;1.20;;;;;;;19.17;59.20;100470.98;140121;1180;108007;-73
2021/09/01 14:51:57;;;;;;;3.30;1.40;;;;;;;19.20;59.63;100472.88;140098;1179;108399;-76
2021/09/01 14:55:03;;;;;;;3.80;1.60;;;;;;;19.17;59.21;100480.14;140007;1180;108572;-76
2021/09/01 14:58:08;;;;;;;2.80;1.50;;;;;;;19.05;59.71;100480.94;140093;1179;107850;-76
2021/09/01 15:01:14;;;;;;;2.40;1.30;;;;;;;18.92;59.47;100474.90;140035;1179;108538;-75
2021/09/01 15:04:20;;;;;;;2.70;1.30;;;;;;;18.83;59.75;100481.98;140044;1179;108535;-76
2021/09/01 15:07:25;;;;;;;2.60;1.40;;;;;;;18.74;59.97;100487.57;140074;1179;108347;-75
2021/09/01 15:10:30;;;;;;;2.20;1.50;;;;;;;18.63;59.86;100487.02;140080;1180;108500;-74
2021/09/01 15:13:36;;;;;;;2.70;1.70;;;;;;;18.61;60.38;100481.14;140091;1179;108294;-74
2021/09/01 15:16:41;;;;;;;2.10;1.30;;;;;;;18.60;60.17;100484.38;140094;1179;108419;-75
2021/09/01 15:19:46;;;;;;;2.90;1.50;;;;;;;18.59;60.38;100488.19;140057;1181;108440;-77
2021/09/01 15:22:52;;;;;;;2.10;1.20;;;;;;;18.51;59.47;100490.61;140080;1179;108426;-75
2021/09/01 15:25:57;;;;;;;2.50;1.50;;;;;;;18.42;60.40;100487.95;140071;1179;108396;-74
2021/09/01 15:29:03;;;;;;;4.00;1.70;;;;;;;18.37;60.74;100484.17;140086;1179;108467;-75
2021/09/01 15:32:09;;;;;;;4.20;2.00;;;;;;;18.36;61.19;100479.67;140142;1179;108409;-74
2021/09/01 15:35:15;;;;;;;3.80;2.40;;;;;;;18.34;60.94;100479.66;140096;1180;108366;-70
2021/09/01 15:38:21;;;;;;;3.80;2.40;;;;;;;18.29;61.16;100479.88;139866;1181;108502;-68